Time;durP1;ratioP1;P1;durP2;ratioP2;P2;SDS_P1;SDS_P2;PMS_P1;PMS_P2;Temp;Humidity;BMP_temperature;BMP_pressure;BME280_temperature;BME280_humidity;BME280_pressure;Samples;Min_cycle;Max_cycle;Signal;HPM_P1;HPM_P2
2023/11/07 00:00:32;;;;;;;1.45;0.80;;;7.10;99.90;;;;;;5021834;28;20573;-79
2023/11/07 00:02:58;;;;;;;2.25;0.80;;;7.10;99.90;;;;;;5015540;28;20113;-78
2023/11/07 00:05:23;;;;;;;1.23;0.60;;;7.10;99.90;;;;;;5008172;28;20034;-78
2023/11/07 00:07:49;;;;;;;3.72;0.75;;;7.10;99.90;;;;;;5007136;28;20030;-79
2023/11/07 00:10:15;;;;;;;0.75;0.75;;;7.00;99.90;;;;;;5007984;28;20470;-76
2023/11/07 00:12:41;;;;;;;0.90;0.60;;;7.00;99.90;;;;;;5007870;28;20029;-79
2023/11/07 00:15:08;;;;;;;2.53;0.80;;;7.00;99.90;;;;;;5001783;28;20080;-80
2023/11/07 00:17:33;;;;;;;1.55;0.50;;;7.00;99.90;;;;;;5011030;28;20030;-77
2023/11/07 00:19:59;;;;;;;2.55;0.90;;;7.00;99.90;;;;;;5002890;28;20375;-77
2023/11/07 00:22:26;;;;;;;0.50;0.50;;;6.90;99.90;;;;;;5014248;28;20033;-77
2023/11/07 00:24:53;;;;;;;1.38;0.45;;;7.00;99.90;;;;;;5012334;28;20037;-80
2023/11/07 00:27:19;;;;;;;1.27;0.38;;;6.90;99.90;;;;;;5010357;28;20018;-78
2023/11/07 00:29:46;;;;;;;0.70;0.60;;;6.90;99.90;;;;;;5015087;28;20537;-79
2023/11/07 00:32:12;;;;;;;4.05;0.50;;;6.90;99.90;;;;;;5008325;28;20026;-78
2023/11/07 00:34:39;;;;;;;1.50;0.65;;;6.90;99.90;;;;;;5019884;28;20033;-78
2023/11/07 00:37:05;;;;;;;0.93;0.50;;;6.90;99.90;;;;;;5018876;28;20040;-79
2023/11/07 00:39:31;;;;;;;1.23;0.40;;;6.90;99.90;;;;;;5015578;28;20042;-79
2023/11/07 00:41:57;;;;;;;1.45;0.50;;;6.90;99.90;;;;;;5013230;28;20057;-79
2023/11/07 00:44:23;;;;;;;0.95;0.32;;;6.90;99.90;;;;;;5011863;28;20049;-78
2023/11/07 00:46:49;;;;;;;2.17;0.40;;;6.90;99.90;;;;;;5010691;28;20037;-78
2023/11/07 00:49:15;;;;;;;1.38;0.57;;;6.90;99.90;;;;;;5002910;28;20023;-79
2023/11/07 00:51:41;;;;;;;0.70;0.40;;;6.90;99.90;;;;;;5012944;28;20553;-79
2023/11/07 00:54:10;;;;;;;3.00;0.60;;;6.90;99.90;;;;;;5016594;28;20076;-79
2023/11/07 00:56:36;;;;;;;0.50;0.40;;;6.90;99.90;;;;;;5010658;28;20121;-77
2023/11/07 00:59:02;;;;;;;1.52;0.60;;;6.90;99.90;;;;;;5012903;28;20067;-78
2023/11/07 01:01:30;;;;;;;1.45;0.43;;;6.90;99.90;;;;;;5007650;28;20117;-78
2023/11/07 01:03:57;;;;;;;1.33;0.40;;;6.90;99.90;;;;;;5003707;28;20044;-79
2023/11/07 01:06:23;;;;;;;1.75;0.50;;;7.00;99.90;;;;;;4999761;28;20044;-78
2023/11/07 01:08:49;;;;;;;1.13;0.52;;;6.90;99.90;;;;;;5012173;28;20026;-79
2023/11/07 01:11:15;;;;;;;0.65;0.40;;;6.90;99.90;;;;;;5013811;28;20295;-78
2023/11/07 01:13:41;;;;;;;5.20;0.57;;;6.90;99.90;;;;;;5008609;28;20477;-79
2023/11/07 01:16:10;;;;;;;2.30;0.45;;;6.90;99.90;;;;;;5001803;28;20556;-78
2023/11/07 01:18:36;;;;;;;0.63;0.40;;;6.90;99.90;;;;;;5006166;28;20038;-79
2023/11/07 01:21:02;;;;;;;1.02;0.40;;;7.00;99.90;;;;;;5006424;28;20033;-79
2023/11/07 01:23:28;;;;;;;1.42;0.70;;;6.90;99.90;;;;;;4992866;28;20489;-79
2023/11/07 01:25:54;;;;;;;1.67;0.40;;;6.90;99.90;;;;;;5011444;28;20033;-78
2023/11/07 01:28:21;;;;;;;0.55;0.30;;;7.00;99.90;;;;;;5002495;28;20077;-78
2023/11/07 01:30:50;;;;;;;2.28;0.50;;;7.00;99.90;;;;;;5005544;28;20036;-77
2023/11/07 01:33:16;;;;;;;1.70;0.47;;;7.00;99.90;;;;;;5000895;28;20033;-78
2023/11/07 01:35:42;;;;;;;2.65;0.50;;;7.00;99.90;;;;;;5000769;28;20045;-78
2023/11/07 01:38:09;;;;;;;1.60;0.30;;;7.00;99.90;;;;;;5009272;28;20100;-79
2023/11/07 01:40:35;;;;;;;0.73;0.47;;;7.00;99.90;;;;;;5009188;28;20088;-79
2023/11/07 01:43:14;;;;;;;1.35;0.50;;;7.00;99.90;;;;;;5012832;28;20242;-79
2023/11/07 01:45:40;;;;;;;2.45;0.68;;;7.00;99.90;;;;;;5011087;28;20549;-79
2023/11/07 01:48:12;;;;;;;1.15;0.47;;;7.10;99.90;;;;;;5007861;28;20121;-78
2023/11/07 01:50:39;;;;;;;1.63;0.60;;;7.00;99.90;;;;;;5012315;28;20060;-79
2023/11/07 01:53:06;;;;;;;2.70;0.93;;;7.00;99.90;;;;;;5009819;28;20026;-78
2023/11/07 01:55:32;;;;;;;1.65;0.40;;;7.00;99.90;;;;;;5015494;28;20030;-78
2023/11/07 01:58:02;;;;;;;1.10;0.30;;;7.00;99.90;;;;;;5007951;28;20053;-79
2023/11/07 02:00:29;;;;;;;0.90;0.50;;;7.00;99.90;;;;;;5008079;28;20041;-78
2023/11/07 02:02:56;;;;;;;6.00;0.98;;;7.00;99.90;;;;;;5002884;28;20650;-79
2023/11/07 02:05:22;;;;;;;1.80;0.30;;;7.00;99.90;;;;;;5011876;28;20803;-79
2023/11/07 02:07:47;;;;;;;2.92;0.40;;;7.00;99.90;;;;;;5010000;28;20080;-79
2023/11/07 02:10:13;;;;;;;1.38;0.50;;;7.00;99.90;;;;;;5014271;28;20145;-79
2023/11/07 02:12:39;;;;;;;1.27;0.57;;;7.00;99.90;;;;;;5008829;28;20034;-78
2023/11/07 02:15:22;;;;;;;0.57;0.40;;;7.00;99.90;;;;;;5001900;28;20466;-78
2023/11/07 02:17:49;;;;;;;3.35;0.57;;;7.00;99.90;;;;;;5015125;28;20040;-79
2023/11/07 02:20:17;;;;;;;1.05;0.40;;;6.90;99.90;;;;;;5002707;28;20026;-79
2023/11/07 02:22:48;;;;;;;1.92;0.63;;;7.00;99.90;;;;;;5013204;28;20034;-78
2023/11/07 02:25:16;;;;;;;3.33;0.50;;;7.00;99.90;;;;;;4998952;28;20629;-77
2023/11/07 02:27:42;;;;;;;2.28;0.70;;;7.00;99.90;;;;;;5011102;28;20505;-79
2023/11/07 02:30:12;;;;;;;2.83;0.63;;;6.90;99.90;;;;;;5010216;28;20029;-79
2023/11/07 02:32:42;;;;;;;2.88;0.40;;;6.90;99.90;;;;;;5016145;28;20044;-79
2023/11/07 02:35:10;;;;;;;2.15;0.70;;;6.90;99.90;;;;;;5008019;28;20054;-79
2023/11/07 02:37:37;;;;;;;1.35;0.47;;;6.90;99.90;;;;;;5015713;28;20041;-77
2023/11/07 02:40:03;;;;;;;1.08;0.55;;;6.80;99.90;;;;;;5002172;28;20029;-78
2023/11/07 02:42:30;;;;;;;1.23;0.40;;;6.80;99.90;;;;;;5002630;28;20077;-79
2023/11/07 02:44:56;;;;;;;1.13;0.57;;;6.80;99.90;;;;;;5004884;28;20121;-78
2023/11/07 02:47:23;;;;;;;3.60;0.65;;;6.70;99.90;;;;;;5007554;28;20034;-77
2023/11/07 02:49:49;;;;;;;1.42;0.50;;;6.70;99.90;;;;;;5015069;28;20034;-78
2023/11/07 02:52:16;;;;;;;1.67;0.63;;;6.70;99.90;;;;;;5005494;28;20030;-78
2023/11/07 02:54:42;;;;;;;1.55;0.50;;;6.70;99.90;;;;;;5003174;28;20088;-79
2023/11/07 02:57:07;;;;;;;2.35;0.50;;;6.60;99.90;;;;;;5006518;28;20403;-78
2023/11/07 02:59:33;;;;;;;2.42;0.50;;;6.60;99.90;;;;;;5015362;28;20038;-78
2023/11/07 03:02:00;;;;;;;2.20;0.40;;;6.60;99.90;;;;;;5018157;28;20025;-78
2023/11/07 03:04:26;;;;;;;0.70;0.52;;;6.60;99.90;;;;;;5018614;28;20584;-77
2023/11/07 03:07:11;;;;;;;1.58;0.52;;;6.60;99.90;;;;;;5013788;28;20401;-78
2023/11/07 03:09:37;;;;;;;0.90;0.43;;;6.60;99.90;;;;;;5010883;28;20034;-78
2023/11/07 03:12:03;;;;;;;4.82;0.60;;;6.60;99.90;;;;;;5017755;28;20030;-79
2023/11/07 03:14:29;;;;;;;0.90;0.47;;;6.60;99.90;;;;;;5010594;28;20053;-79
2023/11/07 03:16:55;;;;;;;1.70;0.40;;;6.60;99.90;;;;;;5012841;28;20029;-78
2023/11/07 03:19:21;;;;;;;1.02;0.50;;;6.60;99.90;;;;;;5009823;28;20048;-79
2023/11/07 03:21:47;;;;;;;0.63;0.43;;;6.60;99.90;;;;;;5014728;28;20037;-78
2023/11/07 03:24:13;;;;;;;1.35;0.40;;;6.60;99.90;;;;;;5007683;28;20458;-78
2023/11/07 03:26:39;;;;;;;1.65;0.57;;;6.60;99.90;;;;;;5015143;28;20045;-78
2023/11/07 03:29:05;;;;;;;0.80;0.50;;;6.70;99.90;;;;;;4997288;28;20568;-79
2023/11/07 03:31:31;;;;;;;3.15;0.75;;;6.70;99.90;;;;;;5015970;28;20030;-78
2023/11/07 03:34:17;;;;;;;2.30;0.60;;;6.70;99.90;;;;;;5018345;28;20081;-78
2023/11/07 03:36:42;;;;;;;2.30;0.95;;;6.70;99.90;;;;;;5015993;28;20542;-78
2023/11/07 03:39:09;;;;;;;0.73;0.35;;;6.70;99.90;;;;;;5018933;28;20060;-78
2023/11/07 03:41:39;;;;;;;1.00;0.50;;;6.70;99.90;;;;;;5016101;28;20109;-78
2023/11/07 03:44:05;;;;;;;0.93;0.60;;;6.80;99.90;;;;;;5009690;28;20033;-78
2023/11/07 03:46:31;;;;;;;1.73;0.63;;;6.80;99.90;;;;;;5013023;28;20514;-79
2023/11/07 03:48:56;;;;;;;1.05;0.77;;;6.80;99.90;;;;;;5007375;28;20037;-79
2023/11/07 03:51:22;;;;;;;0.80;0.60;;;6.80;99.90;;;;;;5019996;28;20383;-79
2023/11/07 03:53:48;;;;;;;1.08;0.60;;;6.80;99.90;;;;;;5012285;28;20123;-78
2023/11/07 03:56:14;;;;;;;2.50;0.60;;;6.80;99.90;;;;;;5009935;28;20106;-78
2023/11/07 03:58:40;;;;;;;1.33;0.57;;;6.80;99.90;;;;;;5011462;28;20470;-78
2023/11/07 04:01:06;;;;;;;1.70;0.90;;;6.80;99.90;;;;;;5013191;28;20057;-79
2023/11/07 04:03:32;;;;;;;2.90;0.50;;;6.80;99.90;;;;;;5009028;28;20033;-79
2023/11/07 04:05:57;;;;;;;1.60;0.80;;;6.80;99.90;;;;;;5010328;28;20034;-78
2023/11/07 04:08:24;;;;;;;0.90;0.65;;;6.80;99.90;;;;;;5005234;28;20039;-80
2023/11/07 04:10:50;;;;;;;2.83;0.70;;;6.80;99.90;;;;;;5008879;28;20096;-79
2023/11/07 04:13:16;;;;;;;2.03;0.55;;;6.80;99.90;;;;;;5008272;28;20026;-80
2023/11/07 04:15:42;;;;;;;3.00;0.63;;;6.80;99.90;;;;;;5014551;28;20225;-80
2023/11/07 04:18:10;;;;;;;0.75;0.60;;;6.80;99.90;;;;;;5015205;28;20087;-78
2023/11/07 04:20:36;;;;;;;0.60;0.60;;;6.80;99.90;;;;;;5011692;28;20057;-79
2023/11/07 04:23:02;;;;;;;1.30;0.80;;;6.80;99.90;;;;;;5012720;28;20037;-78
2023/11/07 04:25:30;;;;;;;1.85;0.57;;;6.90;99.90;;;;;;5008100;28;20449;-80
2023/11/07 04:27:56;;;;;;;4.78;0.50;;;6.90;99.90;;;;;;5010113;28;20037;-79
2023/11/07 04:30:22;;;;;;;1.90;0.60;;;6.90;99.90;;;;;;5016236;28;20034;-79
2023/11/07 04:32:48;;;;;;;2.40;0.75;;;6.80;99.90;;;;;;5014930;28;20038;-79
2023/11/07 04:35:15;;;;;;;0.90;0.65;;;6.80;99.90;;;;;;5014678;28;20296;-80
2023/11/07 04:37:42;;;;;;;1.02;0.65;;;6.80;99.90;;;;;;5010264;28;20068;-79
2023/11/07 04:40:08;;;;;;;3.10;0.60;;;6.80;99.90;;;;;;5007937;28;20057;-79
2023/11/07 04:42:34;;;;;;;0.70;0.68;;;6.80;99.90;;;;;;5005455;28;20649;-80
2023/11/07 04:45:01;;;;;;;2.63;0.47;;;6.90;99.90;;;;;;5011693;28;20038;-80
2023/11/07 04:47:27;;;;;;;1.75;0.60;;;6.80;99.90;;;;;;5007733;28;20527;-79
2023/11/07 04:49:56;;;;;;;0.40;0.40;;;6.80;99.90;;;;;;5010717;28;20040;-79
2023/11/07 04:52:22;;;;;;;0.75;0.60;;;6.90;99.90;;;;;;5006176;28;20658;-79
2023/11/07 04:54:48;;;;;;;1.27;0.65;;;6.90;99.90;;;;;;5012352;28;20052;-80
2023/11/07 04:57:14;;;;;;;1.85;0.55;;;6.90;99.90;;;;;;5014362;28;20605;-80
2023/11/07 04:59:39;;;;;;;2.05;0.50;;;6.90;99.90;;;;;;5016444;28;20125;-79
2023/11/07 05:02:06;;;;;;;0.98;0.50;;;6.90;99.90;;;;;;4977557;28;20053;-79
2023/11/07 05:04:32;;;;;;;1.33;0.60;;;6.90;99.90;;;;;;5011690;28;20022;-80
2023/11/07 05:06:59;;;;;;;0.90;0.60;;;6.90;99.90;;;;;;5010820;28;20031;-79
2023/11/07 05:09:25;;;;;;;0.90;0.75;;;6.80;99.90;;;;;;5008784;28;20054;-80
2023/11/07 05:11:51;;;;;;;2.55;0.88;;;6.80;99.90;;;;;;5010910;28;20066;-80
2023/11/07 05:14:17;;;;;;;0.40;0.40;;;6.80;99.90;;;;;;5014331;28;20022;-80
2023/11/07 05:16:43;;;;;;;0.85;0.60;;;6.70;99.90;;;;;;5016043;28;20438;-80
2023/11/07 05:19:09;;;;;;;0.63;0.60;;;6.70;99.90;;;;;;5012289;28;20114;-80
2023/11/07 05:21:35;;;;;;;1.77;0.60;;;6.70;99.90;;;;;;5017216;28;20042;-80
2023/11/07 05:24:06;;;;;;;2.78;0.80;;;6.60;99.90;;;;;;5016299;28;20030;-80
2023/11/07 05:26:32;;;;;;;0.90;0.60;;;6.60;99.90;;;;;;5019452;28;20037;-79
2023/11/07 05:28:58;;;;;;;0.65;0.52;;;6.60;99.90;;;;;;5009569;28;20080;-80
2023/11/07 05:31:23;;;;;;;1.10;0.70;;;6.50;99.90;;;;;;5008741;28;20030;-80
2023/11/07 05:33:50;;;;;;;1.80;0.70;;;6.50;99.90;;;;;;5007459;28;20034;-80
2023/11/07 05:36:16;;;;;;;3.05;0.68;;;6.50;99.90;;;;;;5010238;28;20042;-80
2023/11/07 05:38:45;;;;;;;3.25;0.38;;;6.50;99.90;;;;;;5007859;28;20042;-78
2023/11/07 05:41:11;;;;;;;0.63;0.55;;;6.50;99.90;;;;;;5011799;28;20028;-79
2023/11/07 05:43:39;;;;;;;1.02;0.45;;;6.50;99.90;;;;;;5010787;28;20080;-79
2023/11/07 05:46:05;;;;;;;1.95;0.60;;;6.50;99.90;;;;;;5015096;28;20068;-79
2023/11/07 05:48:32;;;;;;;2.33;0.70;;;6.50;99.90;;;;;;5017366;28;20034;-79
2023/11/07 05:51:00;;;;;;;1.00;0.80;;;6.40;99.90;;;;;;5008631;28;20030;-80
2023/11/07 05:53:26;;;;;;;0.63;0.60;;;6.40;99.90;;;;;;5003276;28;20673;-80
2023/11/07 05:55:52;;;;;;;1.08;0.98;;;6.40;99.90;;;;;;5007864;28;20037;-80
2023/11/07 05:58:18;;;;;;;1.17;0.68;;;6.40;99.90;;;;;;5006389;28;20030;-80
2023/11/07 06:00:44;;;;;;;1.40;0.70;;;6.30;99.90;;;;;;5008851;28;20041;-80
2023/11/07 06:03:15;;;;;;;1.60;0.88;;;6.30;99.90;;;;;;5004490;28;20030;-79
2023/11/07 06:05:41;;;;;;;1.98;0.70;;;6.30;99.90;;;;;;5011706;28;20025;-79
2023/11/07 06:08:08;;;;;;;0.80;0.80;;;6.30;99.90;;;;;;5009686;28;20529;-79
2023/11/07 06:10:34;;;;;;;3.90;1.83;;;6.30;99.90;;;;;;5012399;28;20044;-81
2023/11/07 06:13:04;;;;;;;0.80;0.80;;;6.30;99.90;;;;;;5005724;28;20438;-80
2023/11/07 06:15:31;;;;;;;1.30;0.70;;;6.30;99.90;;;;;;5009278;28;20939;-77
2023/11/07 06:17:57;;;;;;;1.58;0.90;;;6.30;99.90;;;;;;5014536;28;20680;-80
2023/11/07 06:20:23;;;;;;;1.00;0.82;;;6.30;99.90;;;;;;5015875;28;20044;-80
2023/11/07 06:22:50;;;;;;;1.30;1.10;;;6.40;99.90;;;;;;5009413;28;20034;-79
2023/11/07 06:25:17;;;;;;;1.77;1.08;;;6.40;99.90;;;;;;5014162;28;20336;-80
2023/11/07 06:27:42;;;;;;;1.25;1.15;;;6.40;99.90;;;;;;5009651;28;20030;-80
2023/11/07 06:30:10;;;;;;;0.90;0.80;;;6.40;99.90;;;;;;5000915;28;20575;-78
2023/11/07 06:32:36;;;;;;;1.92;1.42;;;6.40;99.90;;;;;;5010930;28;20022;-79
2023/11/07 06:35:05;;;;;;;1.25;1.15;;;6.40;99.90;;;;;;5013202;28;20049;-80
2023/11/07 06:37:33;;;;;;;2.05;1.35;;;6.40;99.90;;;;;;5010700;28;20053;-80
2023/11/07 06:40:17;;;;;;;5.85;1.38;;;6.40;99.90;;;;;;5012416;28;20508;-80
2023/11/07 06:42:44;;;;;;;1.17;1.08;;;6.50;99.90;;;;;;5015000;28;20130;-80
2023/11/07 06:45:13;;;;;;;1.25;1.13;;;6.50;99.90;;;;;;5014018;28;20029;-79
2023/11/07 06:47:43;;;;;;;1.52;0.95;;;6.50;99.90;;;;;;5006741;28;20025;-79
2023/11/07 06:50:10;;;;;;;3.17;1.10;;;6.60;99.90;;;;;;5009300;28;20084;-79
2023/11/07 06:52:39;;;;;;;1.80;1.10;;;6.60;99.90;;;;;;5012942;28;20049;-78
2023/11/07 06:55:06;;;;;;;3.28;1.25;;;6.50;99.90;;;;;;5009634;28;20466;-79
2023/11/07 06:57:33;;;;;;;2.20;1.10;;;6.60;99.90;;;;;;5008221;28;20044;-78
2023/11/07 07:00:00;;;;;;;1.23;1.08;;;6.50;99.90;;;;;;5010826;28;20038;-80
2023/11/07 07:02:25;;;;;;;1.40;0.90;;;6.50;99.90;;;;;;5010547;28;20049;-79
2023/11/07 07:04:51;;;;;;;3.00;1.05;;;6.50;99.90;;;;;;5011612;28;20029;-79
2023/11/07 07:07:19;;;;;;;2.70;1.10;;;6.50;99.90;;;;;;5015683;28;20034;-79
2023/11/07 07:09:44;;;;;;;2.72;0.93;;;6.50;99.90;;;;;;5014127;28;20650;-80
2023/11/07 07:12:10;;;;;;;0.73;0.73;;;6.50;99.90;;;;;;5007799;28;20038;-79
2023/11/07 07:14:36;;;;;;;5.22;1.13;;;6.50;99.90;;;;;;5009745;28;20029;-80
2023/11/07 07:17:03;;;;;;;1.80;1.17;;;6.50;99.90;;;;;;5009615;28;20022;-79
2023/11/07 07:19:29;;;;;;;2.50;1.10;;;6.50;99.90;;;;;;5010239;28;20084;-79
2023/11/07 07:21:55;;;;;;;0.90;0.90;;;6.50;99.90;;;;;;5007893;28;20026;-79
2023/11/07 07:24:21;;;;;;;1.35;0.80;;;6.50;99.90;;;;;;5008843;28;20034;-80
2023/11/07 07:26:48;;;;;;;2.47;1.20;;;6.50;99.90;;;;;;5011907;28;20118;-79
2023/11/07 07:29:15;;;;;;;1.10;0.80;;;6.50;99.90;;;;;;5009962;28;20125;-79
2023/11/07 07:31:41;;;;;;;2.20;1.02;;;6.50;99.90;;;;;;5009256;28;20034;-79
2023/11/07 07:34:08;;;;;;;1.80;0.70;;;6.50;99.90;;;;;;5005502;28;20033;-80
2023/11/07 07:36:43;;;;;;;0.95;0.75;;;6.50;99.90;;;;;;5004473;28;20056;-78
2023/11/07 07:39:46;;;;;;;2.78;1.00;;;6.50;99.90;;;;;;5002974;28;20038;-79
2023/11/07 07:42:09;;;;;;;1.17;1.00;;;6.50;99.90;;;;;;5004431;28;20041;-80
2023/11/07 07:44:35;;;;;;;0.95;0.70;;;6.50;99.90;;;;;;5002273;28;20043;-79
2023/11/07 07:47:02;;;;;;;3.03;1.00;;;6.50;99.90;;;;;;5009057;28;20030;-79
2023/11/07 07:49:30;;;;;;;2.20;1.15;;;6.50;99.90;;;;;;5006971;28;20038;-79
2023/11/07 07:52:22;;;;;;;2.70;0.70;;;6.50;99.90;;;;;;5009591;28;20041;-80
2023/11/07 07:54:48;;;;;;;1.45;0.60;;;6.60;99.90;;;;;;5013922;28;20045;-79
2023/11/07 07:57:17;;;;;;;0.70;0.70;;;6.60;99.90;;;;;;5012380;28;20088;-79
2023/11/07 07:59:44;;;;;;;2.25;0.77;;;6.70;99.90;;;;;;5014872;28;20514;-79
2023/11/07 08:02:10;;;;;;;2.35;0.98;;;6.70;99.90;;;;;;5010455;28;20034;-81
2023/11/07 08:04:36;;;;;;;0.80;0.68;;;6.70;99.90;;;;;;5015027;28;20417;-78
2023/11/07 08:07:02;;;;;;;4.32;0.75;;;6.80;99.90;;;;;;5010776;28;20029;-81
2023/11/07 08:09:28;;;;;;;1.20;0.90;;;6.80;99.90;;;;;;5010758;28;20068;-80
2023/11/07 08:11:56;;;;;;;1.10;0.88;;;6.80;99.90;;;;;;5016873;28;20042;-79
2023/11/07 08:14:23;;;;;;;2.17;0.68;;;6.90;99.90;;;;;;5010549;28;20458;-79
2023/11/07 08:16:50;;;;;;;1.13;1.02;;;6.90;99.90;;;;;;5016196;28;20129;-79
2023/11/07 08:19:17;;;;;;;0.75;0.60;;;6.90;99.90;;;;;;5016867;28;20117;-80
2023/11/07 08:21:43;;;;;;;1.85;0.60;;;6.90;99.90;;;;;;5013529;28;20117;-81
2023/11/07 08:24:12;;;;;;;1.00;0.77;;;7.00;99.90;;;;;;5011518;28;20377;-78
2023/11/07 08:26:38;;;;;;;3.45;0.70;;;7.00;99.90;;;;;;5011447;28;20041;-81
2023/11/07 08:29:07;;;;;;;2.58;1.00;;;7.10;99.90;;;;;;5016415;28;20100;-80
2023/11/07 08:31:37;;;;;;;1.98;0.80;;;7.10;99.90;;;;;;5009643;28;20031;-79
2023/11/07 08:34:09;;;;;;;5.10;0.90;;;7.20;99.90;;;;;;5006144;28;20128;-79
2023/11/07 08:36:39;;;;;;;0.63;0.63;;;7.20;99.90;;;;;;5012461;28;20398;-79
2023/11/07 08:39:16;;;;;;;0.88;0.45;;;7.30;99.90;;;;;;5010951;28;20590;-81
2023/11/07 08:41:43;;;;;;;2.72;0.65;;;7.30;99.90;;;;;;5013045;28;20034;-81
2023/11/07 08:44:09;;;;;;;1.02;0.80;;;7.40;99.90;;;;;;5005446;28;20053;-80
2023/11/07 08:46:34;;;;;;;2.70;1.10;;;7.40;99.90;;;;;;5017745;28;20038;-81
2023/11/07 08:49:01;;;;;;;1.52;0.88;;;7.40;99.90;;;;;;5005044;28;20048;-81
2023/11/07 08:51:28;;;;;;;1.70;0.70;;;7.50;99.90;;;;;;5009054;28;20046;-80
2023/11/07 08:53:55;;;;;;;0.65;0.55;;;7.50;99.90;;;;;;5013302;28;20113;-79
2023/11/07 08:56:24;;;;;;;2.78;0.70;;;7.50;99.90;;;;;;5005573;28;20149;-81
2023/11/07 08:58:55;;;;;;;1.58;0.60;;;7.50;99.90;;;;;;5010303;28;20030;-80
2023/11/07 09:01:21;;;;;;;0.60;0.60;;;7.60;99.90;;;;;;5010053;28;20138;-80
2023/11/07 09:03:47;;;;;;;2.10;0.70;;;7.60;99.90;;;;;;5011366;28;20033;-79
2023/11/07 09:06:13;;;;;;;2.95;0.85;;;7.60;99.90;;;;;;5009432;28;20037;-81
2023/11/07 09:08:39;;;;;;;2.83;0.57;;;7.70;99.90;;;;;;5009004;28;20038;-80
2023/11/07 09:11:05;;;;;;;3.28;0.90;;;7.70;99.90;;;;;;5011641;28;20052;-81
2023/11/07 09:13:30;;;;;;;1.10;0.52;;;7.70;99.90;;;;;;5014789;28;20038;-80
2023/11/07 09:15:59;;;;;;;2.00;0.57;;;7.70;99.90;;;;;;5017275;28;20053;-79
2023/11/07 09:18:26;;;;;;;2.40;0.70;;;7.70;99.90;;;;;;5012393;28;20037;-81
2023/11/07 09:20:53;;;;;;;2.53;0.75;;;7.80;99.90;;;;;;5011911;28;20033;-80
2023/11/07 09:23:19;;;;;;;3.92;0.80;;;7.80;99.90;;;;;;5014641;28;20042;-80
2023/11/07 09:25:45;;;;;;;0.95;0.68;;;7.80;99.90;;;;;;5017556;28;20034;-80
2023/11/07 09:28:11;;;;;;;0.70;0.70;;;7.80;99.90;;;;;;5005847;28;20057;-81
2023/11/07 09:30:37;;;;;;;0.77;0.57;;;7.90;99.90;;;;;;5004756;28;20076;-81
2023/11/07 09:33:06;;;;;;;1.42;0.70;;;7.90;99.90;;;;;;5003306;28;20091;-79
2023/11/07 09:35:37;;;;;;;1.58;0.60;;;7.90;99.90;;;;;;5005115;28;20052;-82
2023/11/07 09:38:04;;;;;;;1.85;0.95;;;7.90;99.90;;;;;;5010312;28;20432;-80
2023/11/07 09:40:30;;;;;;;1.85;0.90;;;7.90;99.90;;;;;;5009780;28;20490;-80
2023/11/07 09:42:57;;;;;;;0.93;0.70;;;8.00;99.90;;;;;;5010754;28;20098;-81
2023/11/07 09:45:22;;;;;;;2.20;0.93;;;8.10;99.90;;;;;;5003276;28;20039;-80
2023/11/07 09:47:50;;;;;;;1.77;0.70;;;8.10;99.90;;;;;;5009561;28;20037;-79
2023/11/07 09:50:18;;;;;;;5.60;1.33;;;8.10;99.90;;;;;;5007196;28;20068;-80
2023/11/07 09:52:45;;;;;;;2.95;0.80;;;8.10;99.90;;;;;;5014799;28;20113;-80
2023/11/07 09:55:15;;;;;;;2.95;0.90;;;8.10;99.90;;;;;;5007803;28;20030;-81
2023/11/07 09:57:47;;;;;;;1.52;0.90;;;8.20;99.90;;;;;;5015771;28;20490;-80
2023/11/07 10:00:18;;;;;;;1.10;1.00;;;8.20;99.90;;;;;;5011864;28;20029;-80
2023/11/07 10:02:43;;;;;;;4.80;1.13;;;8.20;99.90;;;;;;5005590;28;20113;-80
2023/11/07 10:05:11;;;;;;;2.28;0.90;;;8.30;99.90;;;;;;5017190;28;20064;-80
2023/11/07 10:07:38;;;;;;;1.42;0.90;;;8.30;99.90;;;;;;5005520;28;20041;-81
2023/11/07 10:10:06;;;;;;;9.80;1.50;;;8.40;99.90;;;;;;5008117;28;20030;-81
2023/11/07 10:12:38;;;;;;;2.05;1.00;;;8.40;99.90;;;;;;5009295;28;20022;-79
2023/11/07 10:15:17;;;;;;;2.67;0.75;;;8.40;99.90;;;;;;5006692;28;20056;-82
2023/11/07 10:18:00;;;;;;;3.83;1.00;;;8.40;99.90;;;;;;5003118;28;20084;-80
2023/11/07 10:20:27;;;;;;;3.00;0.70;;;8.50;99.90;;;;;;5010841;28;20034;-81
2023/11/07 10:22:53;;;;;;;2.42;1.00;;;8.50;99.90;;;;;;5011774;28;20030;-81
2023/11/07 10:25:33;;;;;;;1.33;0.88;;;8.50;99.90;;;;;;5007801;28;20275;-81
2023/11/07 10:28:04;;;;;;;3.00;0.73;;;8.60;99.90;;;;;;5009328;28;20072;-80
2023/11/07 10:30:34;;;;;;;1.05;0.70;;;8.60;99.90;;;;;;4989496;28;20049;-81
2023/11/07 10:32:59;;;;;;;1.52;0.60;;;8.60;99.90;;;;;;5008748;28;20387;-81
2023/11/07 10:35:25;;;;;;;0.95;0.60;;;8.50;99.90;;;;;;5006792;28;20057;-80
2023/11/07 10:37:51;;;;;;;1.98;0.60;;;8.50;99.90;;;;;;5011879;28;20554;-80
2023/11/07 10:40:18;;;;;;;3.25;1.00;;;8.50;99.90;;;;;;5014452;28;20045;-80
2023/11/07 10:42:47;;;;;;;2.10;0.70;;;8.50;99.90;;;;;;5002037;28;20513;-80
2023/11/07 10:45:15;;;;;;;5.60;0.82;;;8.40;99.90;;;;;;5003167;28;20045;-82
2023/11/07 10:47:43;;;;;;;1.77;0.75;;;8.40;99.90;;;;;;5002475;28;20125;-80
2023/11/07 10:50:16;;;;;;;1.80;0.60;;;8.40;99.90;;;;;;5002349;28;20041;-79
2023/11/07 10:52:46;;;;;;;1.00;0.63;;;8.40;99.90;;;;;;4999948;28;20042;-78
2023/11/07 10:55:11;;;;;;;0.60;0.52;;;8.40;99.90;;;;;;5000420;28;20268;-79
2023/11/07 10:57:40;;;;;;;1.38;0.50;;;8.40;99.90;;;;;;4996520;28;20030;-80
2023/11/07 11:00:19;;;;;;;3.92;0.50;;;8.30;99.90;;;;;;5002182;28;20040;-78
2023/11/07 11:02:52;;;;;;;1.35;0.65;;;8.30;99.90;;;;;;5002122;28;20038;-80
2023/11/07 11:05:19;;;;;;;2.22;0.70;;;8.30;99.90;;;;;;4994626;28;20049;-79
2023/11/07 11:07:52;;;;;;;2.28;0.70;;;8.40;99.90;;;;;;4994484;28;20054;-81
2023/11/07 11:10:27;;;;;;;2.10;0.70;;;8.40;99.90;;;;;;5013598;28;20069;-79
2023/11/07 11:12:54;;;;;;;1.63;0.80;;;8.40;99.90;;;;;;5001424;28;20033;-80
2023/11/07 11:15:22;;;;;;;1.67;0.82;;;8.50;99.90;;;;;;5006251;28;20100;-79
2023/11/07 11:18:01;;;;;;;1.08;0.80;;;8.50;99.90;;;;;;5003747;28;20030;-79
2023/11/07 11:20:41;;;;;;;1.27;0.60;;;8.70;99.90;;;;;;5002615;28;20038;-81
2023/11/07 11:23:35;;;;;;;4.97;1.05;;;8.80;99.90;;;;;;5000551;28;20099;-78
2023/11/07 11:26:15;;;;;;;1.33;0.52;;;8.90;99.90;;;;;;5005594;28;20041;-79
2023/11/07 11:28:42;;;;;;;4.18;0.90;;;9.00;99.90;;;;;;5005487;28;20036;-78
2023/11/07 11:31:18;;;;;;;3.25;0.70;;;9.00;99.90;;;;;;5006123;28;20034;-79
2023/11/07 11:33:46;;;;;;;0.85;0.60;;;9.00;99.90;;;;;;5002128;28;20109;-80
2023/11/07 11:36:33;;;;;;;2.88;0.90;;;9.10;99.90;;;;;;4995861;28;20066;-79
2023/11/07 11:38:59;;;;;;;0.85;0.57;;;9.00;99.90;;;;;;5006909;28;20045;-78
2023/11/07 11:41:58;;;;;;;0.90;0.52;;;9.10;99.90;;;;;;5013090;28;20038;-79
2023/11/07 11:44:24;;;;;;;2.42;0.68;;;9.20;99.90;;;;;;5007838;28;20061;-79
2023/11/07 11:46:51;;;;;;;1.13;0.90;;;9.20;99.90;;;;;;4997402;28;20415;-79
2023/11/07 11:49:18;;;;;;;2.45;0.90;;;9.30;99.90;;;;;;5001363;28;20053;-79
2023/11/07 11:51:48;;;;;;;0.73;0.57;;;9.40;99.90;;;;;;5000443;28;20018;-79
2023/11/07 11:54:26;;;;;;;1.98;0.70;;;9.50;99.90;;;;;;5001741;28;20036;-78
2023/11/07 11:56:53;;;;;;;1.90;0.70;;;9.60;99.90;;;;;;5007275;28;20030;-78
2023/11/07 11:59:20;;;;;;;1.08;0.50;;;9.60;99.90;;;;;;5013019;28;20034;-84
2023/11/07 12:01:52;;;;;;;2.03;0.77;;;9.60;99.90;;;;;;5011923;28;20026;-79
2023/11/07 12:04:35;;;;;;;1.45;0.60;;;9.60;99.90;;;;;;5001510;28;20087;-80
2023/11/07 12:07:07;;;;;;;1.02;0.60;;;9.60;99.90;;;;;;5010776;28;20045;-81
2023/11/07 12:09:37;;;;;;;0.82;0.55;;;9.50;99.90;;;;;;5012800;28;20018;-79
2023/11/07 12:12:04;;;;;;;0.57;0.55;;;9.50;99.90;;;;;;5011170;28;20037;-81
2023/11/07 12:14:30;;;;;;;2.67;0.50;;;9.50;99.90;;;;;;5018019;28;20084;-80
2023/11/07 12:16:57;;;;;;;0.55;0.40;;;9.40;99.90;;;;;;5005770;28;20052;-79
2023/11/07 12:19:23;;;;;;;1.60;0.40;;;9.40;99.90;;;;;;5001909;28;20092;-81
2023/11/07 12:21:53;;;;;;;0.38;0.38;;;9.30;99.90;;;;;;5006658;28;20108;-80
2023/11/07 12:24:22;;;;;;;1.40;0.47;;;9.30;99.90;;;;;;5005022;28;20053;-80
2023/11/07 12:26:49;;;;;;;0.55;0.40;;;9.30;99.90;;;;;;5022128;28;20031;-79
2023/11/07 12:29:34;;;;;;;1.83;0.40;;;9.20;99.90;;;;;;5012117;28;20045;-79
2023/11/07 12:32:03;;;;;;;0.30;0.30;;;9.20;99.90;;;;;;5008604;28;21188;-79
2023/11/07 12:34:39;;;;;;;0.90;0.35;;;9.20;99.90;;;;;;5005406;28;20022;-79
2023/11/07 12:37:10;;;;;;;3.60;1.50;;;9.20;99.90;;;;;;5005138;28;20034;-78
2023/11/07 12:39:36;;;;;;;0.90;0.43;;;9.30;99.90;;;;;;5003039;28;20030;-80
2023/11/07 12:42:02;;;;;;;0.73;0.38;;;9.30;99.90;;;;;;5007247;28;20124;-79
2023/11/07 12:44:28;;;;;;;1.42;0.45;;;9.40;99.90;;;;;;5003431;28;20111;-81
2023/11/07 12:46:54;;;;;;;3.65;0.45;;;9.40;99.90;;;;;;5002040;28;20119;-81
2023/11/07 12:49:21;;;;;;;4.30;0.40;;;9.40;99.90;;;;;;5003321;28;20026;-80
2023/11/07 12:51:50;;;;;;;1.10;0.70;;;9.40;99.90;;;;;;4995904;28;20510;-80
2023/11/07 12:54:25;;;;;;;1.40;0.30;;;9.40;99.90;;;;;;5001451;28;20030;-80
2023/11/07 12:56:50;;;;;;;0.90;0.60;;;9.30;99.90;;;;;;5004219;28;20034;-80
2023/11/07 12:59:17;;;;;;;0.40;0.28;;;9.30;99.90;;;;;;5007202;28;20099;-79
2023/11/07 13:01:44;;;;;;;0.40;0.32;;;9.30;99.90;;;;;;5004452;28;20545;-79